KCBK

Details ICAO KCBK
Name SHALZ FLD
Region United States
Timezone America/Chicago (UTC-6.0)
Plans Departing 4
Arriving 3
Stats Elevation 3,186 ft / 971 m (AMSL)
Location 39.427196° -101.045904°
Runways 3
Magnetic Variation 5.975° E
Sunrise 2017-12-12 13:56:39 UTC / 2017-12-12 07:56:39 Local
Sunset 2017-12-12 23:22:18 UTC / 2017-12-12 17:22:18 Local
Advertisement - Login to hide

Runways

ID Width Length Bearing (true) Bearing (mag) Surface Threshold Offset Overrun Length
04 80 ft / 24 m 2,575 ft / 785 m 45.44° 39.47° Grass 0 ft / 0 m 0 ft / 0 m
12 90 ft / 27 m 2,600 ft / 792 m 135.96° 129.99° Grass 0 ft / 0 m 0 ft / 0 m
17 75 ft / 23 m 5,118 ft / 1,560 m 180.39° 174.42° Concrete 0 ft / 0 m 0 ft / 0 m
22 80 ft / 24 m 2,575 ft / 785 m 225.45° 219.48° Grass 0 ft / 0 m 0 ft / 0 m
30 90 ft / 27 m 2,600 ft / 792 m 315.97° 310.00° Grass 0 ft / 0 m 0 ft / 0 m
35 75 ft / 23 m 5,118 ft / 1,560 m 0.38° 354.41° Concrete 0 ft / 0 m 0 ft / 0 m

Map

Weather


0- 5 10 15 20 25 30 35+ Temperature / ° C

Clouds and Precipitation
Forecast for 2017-12-13 06:00 UTC. Updated 36 minutes ago

Ground ~20,000 ft ~40,000 ft Winds

METAR

KCBK 130535Z AUTO 27011KT 10SM CLR 03/M06 A2995 RMK AO2

TAF

Not found

Frequencies

Recorded 118.17 MHz AWOS 3
Unicom 122.80 MHz CTAF/UNICOM
Warning: Do not use this data for real-world aviation or navigation. No guarantee of current accuracy is given.